Decoded Metar for CYRV (REVELSTOKE AIRPO in BC, CANADA) (IATA:YRV) | Meteo·Mobile Aviation Weather
aviador You're here:

CYRV Decoded Metar

REVELSTOKE AIRPO in BC, CANADA
Report Time2019-03-23 16:16:00
UTC Time2019-03-23 17:05:24
Flight Rules vfr VFR
WindCalm
Visibility9999 m
Phenomena:N/A
Clouds:Overcast 070 Hf
Expected CloudBase > 400 ft AGL from Temp-Dew spread
Ceiling7,000 ft
Temp01°C (ISA -11)
Dew Point00°C (93% RH)
AAT-1.0°C
QNH1020 hPa
Density Alt-46 ft
Elevation1,453 ft
Report Wrong Elevation
Raw Report
SPECI CYRV 231616Z AUTO 00000KT 9SM OVC070 01/M00 A3011 RMK SLP216=

Extra information for CYRV:More info

Metar Taf Metar & Taf Last 4 Metars F.Rules Stats Wind Profile Meteogram Temp Stats Airport Information Weather charts Add Link Nearby VenuesMetar ALERT Operation Metar Decoded Social comments